createdAt,value
2018-03-25T00:01:49.005Z,3.16
2018-03-25T00:04:17.866Z,3.21
2018-03-25T00:06:45.383Z,3.21
2018-03-25T00:09:12.996Z,3.22
2018-03-25T00:11:41.436Z,3.23
2018-03-25T00:14:09.008Z,3.27
2018-03-25T00:16:36.528Z,3.33
2018-03-25T00:19:04.129Z,3.42
2018-03-25T00:21:31.648Z,3.45
2018-03-25T00:23:59.256Z,3.48
2018-03-25T00:26:26.810Z,3.50
2018-03-25T00:28:54.304Z,3.56
2018-03-25T00:31:21.823Z,3.63
2018-03-25T00:33:49.366Z,3.74
2018-03-25T00:36:16.859Z,3.84
2018-03-25T00:38:44.385Z,3.93
2018-03-25T00:41:11.880Z,3.98
2018-03-25T00:43:39.392Z,3.95
2018-03-25T00:46:06.979Z,3.91
2018-03-25T00:48:34.503Z,3.91
2018-03-25T00:51:01.987Z,3.91
2018-03-25T00:53:29.629Z,3.86
2018-03-25T00:55:57.152Z,3.81
2018-03-25T00:58:24.673Z,3.72
2018-03-25T01:00:52.168Z,3.67
2018-03-25T01:03:19.780Z,3.68
2018-03-25T01:05:47.279Z,3.65
2018-03-25T01:08:14.828Z,3.57
2018-03-25T01:10:42.336Z,3.49
2018-03-25T01:13:09.946Z,3.38
2018-03-25T01:15:49.381Z,3.29
2018-03-25T01:18:16.931Z,3.23
2018-03-25T01:20:44.433Z,3.13
2018-03-25T01:23:11.939Z,3.11
2018-03-25T01:25:39.428Z,3.02
2018-03-25T01:28:06.943Z,2.99
2018-03-25T01:30:34.441Z,3.01
2018-03-25T01:33:01.993Z,3.04
2018-03-25T01:35:29.499Z,3.09
2018-03-25T01:37:57.012Z,3.11
2018-03-25T01:40:24.534Z,3.10
2018-03-25T01:42:52.120Z,3.12
2018-03-25T01:45:19.654Z,3.06
2018-03-25T01:47:47.156Z,3.03
2018-03-25T01:50:14.714Z,3.03
2018-03-25T01:52:42.263Z,3.10
2018-03-25T01:55:09.822Z,3.15
2018-03-25T01:57:37.384Z,3.19
2018-03-25T02:00:04.947Z,3.21
2018-03-25T02:02:32.457Z,3.20
2018-03-25T02:04:59.980Z,3.18
2018-03-25T02:07:27.478Z,3.17
2018-03-25T02:09:59.016Z,3.10
2018-03-25T02:12:26.803Z,3.03
2018-03-25T02:14:54.324Z,2.90
2018-03-25T02:17:21.852Z,2.85
2018-03-25T02:19:49.407Z,2.82
2018-03-25T02:22:16.980Z,2.69
2018-03-25T02:24:44.527Z,2.57
2018-03-25T02:27:12.019Z,2.43
2018-03-25T02:29:39.544Z,2.23
2018-03-25T02:32:07.041Z,2.12
2018-03-25T02:34:34.558Z,2.09
2018-03-25T02:37:02.045Z,2.03
2018-03-25T02:39:29.595Z,1.96
2018-03-25T02:41:57.092Z,1.90
2018-03-25T02:44:24.604Z,1.94
2018-03-25T02:46:52.116Z,1.89
2018-03-25T02:49:19.738Z,1.84
2018-03-25T02:51:47.261Z,1.90
2018-03-25T02:54:14.761Z,1.86
2018-03-25T02:56:42.294Z,1.77
2018-03-25T02:59:09.862Z,1.66
2018-03-25T03:01:37.425Z,1.53
2018-03-25T03:04:04.976Z,1.50
2018-03-25T03:06:32.496Z,1.48
2018-03-25T03:09:00.091Z,1.54
2018-03-25T03:11:27.607Z,1.52
2018-03-25T03:13:55.235Z,1.52
2018-03-25T03:16:22.752Z,1.47
2018-03-25T03:18:50.256Z,1.38
2018-03-25T03:21:17.787Z,1.33
2018-03-25T03:23:45.358Z,1.27
2018-03-25T03:26:12.886Z,1.23
2018-03-25T03:28:40.380Z,1.23
2018-03-25T03:31:07.934Z,1.15
2018-03-25T03:33:35.428Z,1.07
2018-03-25T03:36:02.942Z,1.11
2018-03-25T03:38:30.508Z,1.12
2018-03-25T03:40:58.072Z,1.11
2018-03-25T03:43:25.565Z,1.11
2018-03-25T03:45:53.088Z,1.12
2018-03-25T03:48:20.657Z,1.06
2018-03-25T03:50:48.169Z,1.05
2018-03-25T03:53:15.800Z,0.99
2018-03-25T03:55:43.312Z,0.92
2018-03-25T03:58:10.885Z,0.86
2018-03-25T04:00:38.396Z,0.82
2018-03-25T04:03:05.912Z,0.80
2018-03-25T04:05:33.464Z,0.88
2018-03-25T04:08:01.023Z,0.85
2018-03-25T04:10:28.584Z,0.86
2018-03-25T04:12:56.116Z,0.87
2018-03-25T04:15:23.635Z,0.84
2018-03-25T04:17:51.149Z,0.82
2018-03-25T04:20:18.722Z,0.81
2018-03-25T04:22:46.269Z,0.83
2018-03-25T04:25:13.771Z,0.82
2018-03-25T04:27:41.283Z,0.77
2018-03-25T04:30:08.772Z,0.74
2018-03-25T04:32:36.283Z,0.70
2018-03-25T04:35:03.775Z,0.62
2018-03-25T04:37:31.334Z,0.58
2018-03-25T04:39:58.836Z,0.52
2018-03-25T04:42:26.366Z,0.51
2018-03-25T04:44:53.852Z,0.49
2018-03-25T04:47:21.391Z,0.49
2018-03-25T04:49:48.892Z,0.46
2018-03-25T04:52:16.484Z,0.44
2018-03-25T04:54:43.972Z,0.41
2018-03-25T04:57:11.497Z,0.39
2018-03-25T04:59:39.060Z,0.43
2018-03-25T05:02:06.624Z,0.45
2018-03-25T05:04:34.131Z,0.48
2018-03-25T05:07:01.621Z,0.50
2018-03-25T05:09:29.141Z,0.49
2018-03-25T05:11:56.639Z,0.50
2018-03-25T05:14:24.156Z,0.48
2018-03-25T05:16:51.655Z,0.54
2018-03-25T05:19:19.189Z,0.50
2018-03-25T05:21:46.682Z,0.42
2018-03-25T05:24:14.204Z,0.41
2018-03-25T05:26:41.708Z,0.40
2018-03-25T05:29:09.228Z,0.42
2018-03-25T05:31:36.719Z,0.48
2018-03-25T05:34:04.234Z,0.59
2018-03-25T05:36:31.733Z,0.57
2018-03-25T05:38:59.409Z,0.60
2018-03-25T05:41:26.907Z,0.72
2018-03-25T05:43:54.424Z,0.87
2018-03-25T05:46:21.943Z,0.94
2018-03-25T05:48:49.452Z,1.01
2018-03-25T05:51:16.939Z,1.06
2018-03-25T05:53:45.412Z,1.16
2018-03-25T05:56:12.908Z,1.17
2018-03-25T05:58:40.432Z,1.18
2018-03-25T06:01:07.921Z,1.19
2018-03-25T06:03:35.441Z,1.22
2018-03-25T06:06:02.968Z,1.29
2018-03-25T06:08:30.533Z,1.34
2018-03-25T06:10:58.041Z,1.40
2018-03-25T06:13:25.537Z,1.48
2018-03-25T06:15:53.064Z,1.50
2018-03-25T06:18:20.561Z,1.57
2018-03-25T06:20:48.127Z,1.71
2018-03-25T06:23:15.639Z,1.83
2018-03-25T06:25:43.158Z,1.94
2018-03-25T06:28:10.652Z,2.08
2018-03-25T06:30:38.163Z,2.19
2018-03-25T06:33:05.727Z,2.29
2018-03-25T06:35:33.256Z,2.42
2018-03-25T06:38:00.850Z,2.52
2018-03-25T06:40:28.616Z,2.63
2018-03-25T06:42:56.168Z,2.73
2018-03-25T06:45:23.734Z,2.86
2018-03-25T06:47:51.229Z,3.01
2018-03-25T06:50:18.793Z,3.11
2018-03-25T06:52:46.339Z,3.17
2018-03-25T06:55:13.844Z,3.26
2018-03-25T06:57:41.428Z,3.41
2018-03-25T07:00:08.915Z,3.53
2018-03-25T07:02:36.459Z,3.67
2018-03-25T07:05:03.956Z,3.76
2018-03-25T07:07:31.628Z,3.84
2018-03-25T07:09:59.128Z,3.95
2018-03-25T07:12:26.915Z,4.04
2018-03-25T07:14:54.420Z,4.17
2018-03-25T07:17:22.004Z,4.30
2018-03-25T07:19:49.536Z,4.45
2018-03-25T07:22:17.103Z,4.69
2018-03-25T07:24:44.596Z,4.92
2018-03-25T07:27:12.135Z,5.19
2018-03-25T07:29:39.719Z,5.50
2018-03-25T07:32:07.267Z,5.86
2018-03-25T07:34:34.760Z,6.18
2018-03-25T07:37:02.299Z,6.54
2018-03-25T07:39:29.844Z,6.84
2018-03-25T07:41:57.412Z,7.46
2018-03-25T07:44:24.985Z,7.82
2018-03-25T07:46:52.524Z,8.08
2018-03-25T07:49:21.442Z,8.24
2018-03-25T07:51:49.072Z,8.26
2018-03-25T07:54:16.568Z,8.10
2018-03-25T07:56:44.104Z,8.00
2018-03-25T07:59:11.624Z,8.01
2018-03-25T08:01:39.137Z,8.01
2018-03-25T08:04:06.652Z,8.20
2018-03-25T08:06:34.245Z,8.17
2018-03-25T08:09:01.731Z,8.29
2018-03-25T08:11:29.257Z,8.39
2018-03-25T08:13:56.772Z,8.57
2018-03-25T08:16:24.332Z,8.76
2018-03-25T08:18:51.856Z,9.10
2018-03-25T08:21:20.317Z,9.33
2018-03-25T08:23:47.813Z,9.89
2018-03-25T08:26:15.335Z,10.21
2018-03-25T08:28:42.879Z,10.36
2018-03-25T08:31:10.381Z,10.73
2018-03-25T08:33:37.917Z,10.59
2018-03-25T08:36:05.439Z,10.74
2018-03-25T08:38:32.960Z,10.84
2018-03-25T08:41:00.456Z,10.85
2018-03-25T08:43:28.048Z,10.55
2018-03-25T08:45:55.568Z,10.37
2018-03-25T08:48:23.099Z,10.28
2018-03-25T08:50:50.720Z,10.00
2018-03-25T08:53:18.263Z,10.01
2018-03-25T08:55:45.756Z,10.09
2018-03-25T08:58:13.312Z,10.09
2018-03-25T09:00:40.832Z,10.13
2018-03-25T09:03:08.364Z,10.12
2018-03-25T09:05:36.084Z,10.21
2018-03-25T09:08:03.755Z,10.28
2018-03-25T09:10:31.263Z,10.39
2018-03-25T09:12:58.873Z,10.55
2018-03-25T09:15:26.393Z,10.72
2018-03-25T09:17:53.917Z,10.86
2018-03-25T09:20:21.416Z,10.99
2018-03-25T09:22:48.985Z,11.12
2018-03-25T09:25:16.572Z,11.49
2018-03-25T09:27:44.091Z,11.87
2018-03-25T09:30:11.594Z,12.04
2018-03-25T09:32:39.140Z,12.30
2018-03-25T09:35:06.640Z,12.33
2018-03-25T09:37:34.164Z,12.34
2018-03-25T09:40:01.682Z,12.53
2018-03-25T09:42:29.216Z,12.88
2018-03-25T09:47:31.844Z,13.90
2018-03-25T09:49:59.429Z,14.61
2018-03-25T09:52:26.976Z,15.49
2018-03-25T09:54:54.505Z,16.54
2018-03-25T09:57:22.119Z,17.10
2018-03-25T09:59:49.725Z,17.91
2018-03-25T10:05:25.035Z,18.65
2018-03-25T10:07:52.527Z,18.41
2018-03-25T10:10:20.063Z,18.35
2018-03-25T10:12:47.572Z,18.56
2018-03-25T10:15:15.121Z,18.43
2018-03-25T10:17:42.622Z,18.45
2018-03-25T10:20:10.148Z,18.56
2018-03-25T10:22:37.685Z,19.17
2018-03-25T10:25:05.224Z,20.06
2018-03-25T10:27:32.756Z,20.06
2018-03-25T10:30:00.333Z,19.55
2018-03-25T10:32:27.855Z,20.22
2018-03-25T10:34:55.617Z,20.61
2018-03-25T10:37:23.132Z,20.94
2018-03-25T10:39:50.732Z,21.02
2018-03-25T10:42:18.260Z,20.11
2018-03-25T10:44:45.788Z,20.77
2018-03-25T10:47:13.303Z,21.39
2018-03-25T10:49:40.868Z,22.08
2018-03-25T10:52:08.371Z,22.20
2018-03-25T10:54:36.031Z,22.33
2018-03-25T10:57:03.536Z,22.35
2018-03-25T10:59:31.104Z,22.19
2018-03-25T11:01:58.625Z,22.38
2018-03-25T11:04:26.162Z,23.44
2018-03-25T11:06:53.660Z,24.08
2018-03-25T11:09:21.187Z,23.61
2018-03-25T11:11:48.737Z,23.84
2018-03-25T11:14:16.309Z,24.07
2018-03-25T11:16:43.939Z,24.32
2018-03-25T11:19:12.420Z,24.26
2018-03-25T11:21:39.988Z,24.55
2018-03-25T11:24:08.504Z,25.27
2018-03-25T11:26:36.024Z,24.57
2018-03-25T11:29:03.552Z,24.64
2018-03-25T11:31:31.180Z,26.12
2018-03-25T11:33:58.727Z,26.56
2018-03-25T11:36:26.280Z,26.59
2018-03-25T11:38:53.852Z,27.23
2018-03-25T11:41:21.375Z,26.49
2018-03-25T11:43:48.897Z,25.42
2018-03-25T11:46:16.432Z,26.86
2018-03-25T11:48:43.949Z,27.78
2018-03-25T11:51:11.492Z,28.04
2018-03-25T11:53:39.008Z,28.56
2018-03-25T11:56:06.576Z,28.13
2018-03-25T11:58:34.079Z,28.70
2018-03-25T12:01:01.624Z,27.95
2018-03-25T12:03:29.143Z,28.76
2018-03-25T12:05:56.677Z,29.36
2018-03-25T12:08:24.175Z,29.39
2018-03-25T12:10:51.718Z,30.11
2018-03-25T12:13:19.243Z,29.54
2018-03-25T12:15:46.825Z,29.65
2018-03-25T12:18:14.325Z,28.74
2018-03-25T12:20:41.922Z,29.96
2018-03-25T12:23:09.442Z,30.70
2018-03-25T12:25:37.000Z,31.09
2018-03-25T12:28:04.543Z,30.20
2018-03-25T12:30:32.064Z,30.08
2018-03-25T12:32:59.680Z,30.35
2018-03-25T12:35:27.188Z,30.12
2018-03-25T12:37:54.737Z,29.16
2018-03-25T12:40:22.240Z,26.42
2018-03-25T12:42:49.771Z,26.54
2018-03-25T12:45:17.267Z,28.79
2018-03-25T12:47:44.795Z,30.02
2018-03-25T12:50:12.292Z,30.59
2018-03-25T12:52:39.808Z,29.74
2018-03-25T12:55:07.466Z,29.38
2018-03-25T12:57:34.980Z,30.09
2018-03-25T13:00:02.484Z,30.43
2018-03-25T13:02:30.020Z,29.95
2018-03-25T13:04:57.534Z,30.35
2018-03-25T13:07:25.105Z,30.89
2018-03-25T13:09:52.592Z,32.78
2018-03-25T13:12:20.128Z,32.28
2018-03-25T13:14:47.616Z,30.56
2018-03-25T13:17:15.151Z,30.28
2018-03-25T13:19:42.652Z,27.31
2018-03-25T13:22:10.165Z,28.54
2018-03-25T13:24:37.674Z,28.21
2018-03-25T13:27:05.173Z,24.94
2018-03-25T13:29:32.734Z,22.40
2018-03-25T13:32:00.223Z,22.73
2018-03-25T13:34:27.849Z,26.29
2018-03-25T13:36:55.524Z,26.33
2018-03-25T13:39:23.081Z,30.29
2018-03-25T13:41:50.579Z,28.64
2018-03-25T13:44:18.096Z,30.10
2018-03-25T13:46:45.588Z,28.74
2018-03-25T13:49:13.144Z,26.03
2018-03-25T13:51:40.675Z,23.79
2018-03-25T13:54:08.220Z,21.79
2018-03-25T13:56:35.784Z,26.12
2018-03-25T13:59:03.305Z,29.55
2018-03-25T14:01:30.858Z,30.66
2018-03-25T14:03:58.366Z,30.67
2018-03-25T14:06:25.879Z,26.05
2018-03-25T14:08:53.472Z,24.99
2018-03-25T14:11:20.965Z,25.39
2018-03-25T14:13:48.504Z,27.63
2018-03-25T14:16:16.019Z,28.29
2018-03-25T14:18:43.675Z,29.35
2018-03-25T14:21:11.160Z,30.04
2018-03-25T14:23:38.675Z,30.74
2018-03-25T14:26:06.208Z,29.45
2018-03-25T14:28:33.765Z,30.52
2018-03-25T14:31:01.261Z,31.00
2018-03-25T14:33:28.799Z,31.71
2018-03-25T14:35:56.382Z,31.42
2018-03-25T14:38:23.974Z,32.71
2018-03-25T14:40:51.611Z,31.36
2018-03-25T14:43:19.227Z,26.36
2018-03-25T14:45:46.743Z,28.78
2018-03-25T14:48:14.335Z,28.52
2018-03-25T14:50:41.888Z,27.06
2018-03-25T14:53:09.467Z,26.63
2018-03-25T14:55:37.009Z,23.59
2018-03-25T14:58:04.533Z,22.07
2018-03-25T15:00:32.272Z,20.41
2018-03-25T15:02:59.809Z,19.77
2018-03-25T15:05:27.328Z,19.13
2018-03-25T15:07:54.905Z,18.71
2018-03-25T15:10:22.393Z,18.26
2018-03-25T15:12:50.003Z,18.32
2018-03-25T15:15:17.596Z,18.48
2018-03-25T15:17:45.087Z,18.52
2018-03-25T15:20:12.616Z,18.54
2018-03-25T15:22:40.197Z,18.27
2018-03-25T15:25:07.741Z,18.50
2018-03-25T15:27:35.281Z,18.30
2018-03-25T15:30:02.788Z,18.30
2018-03-25T15:32:30.275Z,18.44
2018-03-25T15:34:57.891Z,18.34
2018-03-25T15:37:25.397Z,18.23
2018-03-25T15:39:52.949Z,18.42
2018-03-25T15:42:20.459Z,18.08
2018-03-25T15:44:47.981Z,17.76
2018-03-25T15:47:15.573Z,17.88
2018-03-25T15:49:43.135Z,17.61
2018-03-25T15:52:10.633Z,17.81
2018-03-25T15:54:38.179Z,17.91
2018-03-25T15:57:05.683Z,18.26
2018-03-25T15:59:33.180Z,18.58
2018-03-25T16:02:00.820Z,18.34
2018-03-25T16:04:28.313Z,18.06
2018-03-25T16:06:55.897Z,17.71
2018-03-25T16:09:23.395Z,17.19
2018-03-25T16:11:50.982Z,16.98
2018-03-25T16:14:18.492Z,17.07
2018-03-25T16:16:46.080Z,16.76
2018-03-25T16:19:13.578Z,16.54
2018-03-25T16:21:41.114Z,16.64
2018-03-25T16:24:08.625Z,16.59
2018-03-25T16:26:36.147Z,16.60
2018-03-25T16:29:03.659Z,16.49
2018-03-25T16:31:31.236Z,16.66
2018-03-25T16:33:58.764Z,16.85
2018-03-25T16:36:27.374Z,16.39
2018-03-25T16:38:54.954Z,16.18
2018-03-25T16:41:22.518Z,16.21
2018-03-25T16:43:50.024Z,16.16
2018-03-25T16:46:17.627Z,15.81
2018-03-25T16:48:45.171Z,15.64
2018-03-25T16:51:12.728Z,15.56
2018-03-25T16:53:40.226Z,15.44
2018-03-25T16:56:07.784Z,15.25
2018-03-25T16:58:35.297Z,15.11
2018-03-25T17:01:03.810Z,15.02
2018-03-25T17:03:31.319Z,14.83
2018-03-25T17:05:58.853Z,14.73
2018-03-25T17:08:26.367Z,14.66
2018-03-25T17:10:54.936Z,14.45
2018-03-25T17:13:22.848Z,14.39
2018-03-25T17:15:50.332Z,14.26
2018-03-25T17:18:17.885Z,14.21
2018-03-25T17:20:45.389Z,14.11
2018-03-25T17:23:12.912Z,14.05
2018-03-25T17:25:41.483Z,13.92
2018-03-25T17:28:09.024Z,13.91
2018-03-25T17:30:36.526Z,13.86
2018-03-25T17:33:05.161Z,13.79
2018-03-25T17:35:33.706Z,13.74
2018-03-25T17:38:02.201Z,13.64
2018-03-25T17:40:29.768Z,13.61
2018-03-25T17:42:57.306Z,13.56
2018-03-25T17:45:29.914Z,13.48
2018-03-25T17:47:57.428Z,13.41
2018-03-25T17:50:24.923Z,13.34
2018-03-25T17:52:52.528Z,13.25
2018-03-25T17:55:20.938Z,13.19
2018-03-25T17:57:48.545Z,13.12
2018-03-25T18:00:16.064Z,13.10
2018-03-25T18:02:43.602Z,12.95
2018-03-25T18:05:11.101Z,12.79
2018-03-25T18:07:38.629Z,12.62
2018-03-25T18:10:06.138Z,12.46
2018-03-25T18:12:33.684Z,12.36
2018-03-25T18:15:01.181Z,12.22
2018-03-25T18:17:34.106Z,12.08
2018-03-25T18:19:56.477Z,12.04
2018-03-25T18:22:24.020Z,11.92
2018-03-25T18:24:51.671Z,11.87
2018-03-25T18:27:19.224Z,11.82
2018-03-25T18:29:46.756Z,11.69
2018-03-25T18:32:14.304Z,11.65
2018-03-25T18:34:41.825Z,11.58
2018-03-25T18:37:09.376Z,11.55
2018-03-25T18:39:36.895Z,11.50
2018-03-25T18:42:04.411Z,11.38
2018-03-25T18:44:31.960Z,11.32
2018-03-25T18:46:59.464Z,11.30
2018-03-25T18:49:27.012Z,11.18
2018-03-25T18:51:54.519Z,11.11
2018-03-25T18:54:22.048Z,10.97
2018-03-25T18:56:49.548Z,10.90
2018-03-25T18:59:17.072Z,10.88
2018-03-25T19:01:44.576Z,10.80
2018-03-25T19:04:12.103Z,10.82
2018-03-25T19:06:39.602Z,10.76
2018-03-25T19:09:07.124Z,10.71
2018-03-25T19:11:34.626Z,10.65
2018-03-25T19:14:02.153Z,10.61
2018-03-25T19:16:29.656Z,10.57
2018-03-25T19:18:57.192Z,10.56
2018-03-25T19:21:24.700Z,10.52
2018-03-25T19:23:52.330Z,10.51
2018-03-25T19:26:19.848Z,10.42
2018-03-25T19:28:47.400Z,10.37
2018-03-25T19:31:14.932Z,10.33
2018-03-25T19:33:42.458Z,10.32
2018-03-25T19:36:09.970Z,10.22
2018-03-25T19:38:37.509Z,10.09
2018-03-25T19:41:05.024Z,9.99
2018-03-25T19:43:32.561Z,10.02
2018-03-25T19:46:00.111Z,10.05
2018-03-25T19:48:27.647Z,10.08
2018-03-25T19:50:55.170Z,10.11
2018-03-25T19:53:22.669Z,10.11
2018-03-25T19:55:50.216Z,10.05
2018-03-25T19:58:17.745Z,10.00
2018-03-25T20:00:45.281Z,9.96
2018-03-25T20:03:12.786Z,9.83
2018-03-25T20:05:40.311Z,9.77
2018-03-25T20:08:07.804Z,9.76
2018-03-25T20:10:35.332Z,9.71
2018-03-25T20:13:02.904Z,9.67
2018-03-25T20:15:30.429Z,9.61
2018-03-25T20:17:57.927Z,9.56
2018-03-25T20:20:25.461Z,9.49
2018-03-25T20:22:52.973Z,9.37
2018-03-25T20:25:20.619Z,9.38
2018-03-25T20:27:48.168Z,9.36
2018-03-25T20:30:15.680Z,9.37
2018-03-25T20:32:43.280Z,9.31
2018-03-25T20:35:10.841Z,9.40
2018-03-25T20:37:38.430Z,9.31
2018-03-25T20:40:05.948Z,9.21
2018-03-25T20:42:33.476Z,9.12
2018-03-25T20:45:00.988Z,9.15
2018-03-25T20:47:28.536Z,9.06
2018-03-25T20:49:56.067Z,9.00
2018-03-25T20:52:23.608Z,8.93
2018-03-25T20:54:51.106Z,8.90
2018-03-25T20:57:18.645Z,8.82
2018-03-25T20:59:46.160Z,8.79
2018-03-25T21:02:13.695Z,8.74
2018-03-25T21:04:41.190Z,8.72
2018-03-25T21:07:08.712Z,8.55
2018-03-25T21:09:36.210Z,8.47
2018-03-25T21:12:03.739Z,8.44
2018-03-25T21:14:31.237Z,8.52
2018-03-25T21:16:58.756Z,8.54
2018-03-25T21:19:26.259Z,8.61
2018-03-25T21:21:53.776Z,8.61
2018-03-25T21:24:21.280Z,8.64
2018-03-25T21:26:48.897Z,8.61
2018-03-25T21:29:16.408Z,8.63
2018-03-25T21:31:43.931Z,8.62
2018-03-25T21:34:11.428Z,8.61
2018-03-25T21:36:39.964Z,8.49
2018-03-25T21:39:07.468Z,8.41
2018-03-25T21:41:34.992Z,8.26
2018-03-25T21:44:02.491Z,8.25
2018-03-25T21:46:30.116Z,8.23
2018-03-25T21:48:57.782Z,8.07
2018-03-25T21:51:25.415Z,8.04
2018-03-25T21:53:52.920Z,8.02
2018-03-25T21:56:20.427Z,8.05
2018-03-25T21:58:48.016Z,8.00
2018-03-25T22:01:15.517Z,7.89
2018-03-25T22:03:43.140Z,7.74
2018-03-25T22:06:10.671Z,7.55
2018-03-25T22:08:38.258Z,7.39
2018-03-25T22:11:05.753Z,7.23
2018-03-25T22:13:33.277Z,7.13
2018-03-25T22:16:00.832Z,7.16
2018-03-25T22:18:32.265Z,7.14
2018-03-25T22:20:59.768Z,7.20
2018-03-25T22:23:27.287Z,7.25
2018-03-25T22:25:54.780Z,7.33
2018-03-25T22:28:22.320Z,7.28
2018-03-25T22:30:49.818Z,7.33
2018-03-25T22:33:17.347Z,7.29
2018-03-25T22:35:44.851Z,7.27
2018-03-25T22:38:12.443Z,7.14
2018-03-25T22:40:40.015Z,7.06
2018-03-25T22:43:07.538Z,6.90
2018-03-25T22:45:35.045Z,6.75
2018-03-25T22:48:02.568Z,6.56
2018-03-25T22:50:30.066Z,6.42
2018-03-25T22:52:57.663Z,6.36
2018-03-25T22:55:25.189Z,6.26
2018-03-25T22:57:52.714Z,6.21
2018-03-25T23:00:20.248Z,6.19
2018-03-25T23:02:47.827Z,6.10
2018-03-25T23:05:15.404Z,6.01
2018-03-25T23:07:42.914Z,6.04
2018-03-25T23:10:10.431Z,5.95
2018-03-25T23:12:37.914Z,5.90
2018-03-25T23:15:05.434Z,5.79
2018-03-25T23:17:32.993Z,5.67
2018-03-25T23:20:00.543Z,5.61
2018-03-25T23:22:28.040Z,5.68
2018-03-25T23:24:55.577Z,5.67
2018-03-25T23:27:23.133Z,5.64
2018-03-25T23:29:50.672Z,5.59
2018-03-25T23:32:18.160Z,5.54
2018-03-25T23:34:45.806Z,5.45
2018-03-25T23:37:13.299Z,5.40
2018-03-25T23:39:40.838Z,5.40
2018-03-25T23:42:08.341Z,5.42
2018-03-25T23:44:35.939Z,5.39
2018-03-25T23:47:03.503Z,5.39
2018-03-25T23:49:31.069Z,5.41
2018-03-25T23:51:58.604Z,5.41
2018-03-25T23:54:26.183Z,5.33
2018-03-25T23:56:53.700Z,5.28
2018-03-25T23:59:21.207Z,5.23
